Time;durP1;ratioP1;P1;durP2;ratioP2;P2;SDS_P1;SDS_P2;PMS_P1;PMS_P2;Temp;Humidity;BMP_temperature;BMP_pressure;BME280_temperature;BME280_humidity;BME280_pressure;Samples;Min_cycle;Max_cycle;Signal;HPM_P1;HPM_P2
2022/04/20 00:00:20;;;;;;;17.92;10.15;;;;;;;10.92;68.05;101757.63;4987356;28;20050;-65
2022/04/20 00:02:46;;;;;;;16.83;9.18;;;;;;;10.93;68.20;101758.50;4988280;28;20101;-64
2022/04/20 00:05:12;;;;;;;15.30;9.88;;;;;;;10.84;68.34;101752.50;5018639;28;20089;-63
2022/04/20 00:07:38;;;;;;;17.17;10.75;;;;;;;10.89;68.21;101748.94;4986591;28;20429;-64
2022/04/20 00:10:04;;;;;;;17.85;9.38;;;;;;;10.82;68.46;101746.41;4987766;28;20030;-65
2022/04/20 00:12:29;;;;;;;14.13;8.95;;;;;;;10.77;68.71;101752.69;4988741;28;20117;-63
2022/04/20 00:14:55;;;;;;;13.90;9.10;;;;;;;10.78;68.37;101755.28;4991938;28;20435;-64
2022/04/20 00:17:20;;;;;;;15.77;9.32;;;;;;;10.72;68.99;101744.84;4991596;28;20019;-63
2022/04/20 00:19:45;;;;;;;16.70;9.63;;;;;;;10.68;68.50;101748.44;4990091;28;20030;-64
2022/04/20 00:22:11;;;;;;;15.88;9.35;;;;;;;10.66;68.79;101744.97;4991753;28;20120;-64
2022/04/20 00:24:36;;;;;;;14.70;9.05;;;;;;;10.60;68.44;101749.44;4990208;28;20496;-63
2022/04/20 00:27:02;;;;;;;17.38;9.00;;;;;;;10.60;68.79;101751.25;4991200;28;20046;-63
2022/04/20 00:29:27;;;;;;;16.38;9.20;;;;;;;10.52;68.92;101759.28;4991410;28;20026;-64
2022/04/20 00:31:52;;;;;;;15.10;8.90;;;;;;;10.55;68.88;101750.44;4991141;28;20121;-65
2022/04/20 00:34:18;;;;;;;19.58;9.43;;;;;;;10.51;69.35;101752.28;4988365;28;20030;-64
2022/04/20 00:36:43;;;;;;;16.58;9.90;;;;;;;10.54;69.03;101752.19;4990484;28;20027;-64
2022/04/20 00:39:09;;;;;;;15.48;9.25;;;;;;;10.48;69.20;101762.88;4989550;28;20495;-63
2022/04/20 00:41:34;;;;;;;15.27;8.98;;;;;;;10.33;69.41;101759.56;4990590;28;20034;-64
2022/04/20 00:44:00;;;;;;;16.98;8.85;;;;;;;10.31;69.68;101764.03;4989744;28;20027;-63
2022/04/20 00:46:26;;;;;;;14.05;8.93;;;;;;;10.34;69.49;101758.69;4989681;28;20301;-65
2022/04/20 00:48:52;;;;;;;19.35;9.27;;;;;;;10.30;69.42;101761.41;4990614;28;20065;-64
2022/04/20 00:51:18;;;;;;;18.45;9.57;;;;;;;10.32;69.46;101757.84;4989377;28;20038;-63
2022/04/20 00:53:43;;;;;;;14.90;8.18;;;;;;;10.27;69.57;101751.81;4989897;28;20061;-64
2022/04/20 00:56:09;;;;;;;15.20;8.80;;;;;;;10.20;69.87;101755.44;4989888;28;20026;-64
2022/04/20 00:58:35;;;;;;;15.18;8.52;;;;;;;10.19;69.65;101759.84;4990577;28;20053;-63
2022/04/20 01:01:01;;;;;;;13.65;8.77;;;;;;;10.23;69.58;101765.91;4989502;28;20027;-64
2022/04/20 01:03:26;;;;;;;14.82;9.00;;;;;;;10.22;69.51;101762.44;5008407;22;20052;-63
2022/04/20 01:05:51;;;;;;;14.13;7.88;;;;;;;10.21;69.42;101763.31;5006389;28;20026;-63
2022/04/20 01:08:17;;;;;;;13.55;8.70;;;;;;;10.22;69.43;101761.53;5010577;28;20025;-62
2022/04/20 01:10:42;;;;;;;13.43;7.95;;;;;;;10.15;69.50;101759.91;5010304;28;20018;-65
2022/04/20 01:13:08;;;;;;;18.27;9.93;;;;;;;10.10;69.35;101760.00;5010296;28;20479;-63
2022/04/20 01:15:34;;;;;;;14.45;8.23;;;;;;;9.98;70.10;101768.97;5009775;28;20049;-63
2022/04/20 01:18:00;;;;;;;20.98;8.68;;;;;;;9.88;70.18;101765.63;5009309;28;20108;-63
2022/04/20 01:20:25;;;;;;;14.70;9.18;;;;;;;9.87;70.32;101758.59;5007574;28;20116;-64
2022/04/20 01:22:50;;;;;;;15.93;8.80;;;;;;;9.93;69.97;101755.03;5009890;28;20399;-60
2022/04/20 01:25:16;;;;;;;17.92;8.45;;;;;;;9.82;70.31;101753.41;5009391;28;20387;-63
2022/04/20 01:27:41;;;;;;;13.07;8.63;;;;;;;9.86;70.08;101754.25;5009870;28;20022;-63
2022/04/20 01:30:07;;;;;;;12.95;8.88;;;;;;;9.80;70.11;101752.59;5009268;28;20512;-63
2022/04/20 01:32:33;;;;;;;12.27;8.25;;;;;;;9.89;69.99;101756.81;5004318;28;20543;-64
2022/04/20 01:34:58;;;;;;;11.85;8.30;;;;;;;9.93;69.60;101762.94;5008733;28;20117;-64
2022/04/20 01:37:24;;;;;;;12.00;7.93;;;;;;;9.90;69.69;101757.72;5008787;28;20037;-64
2022/04/20 01:39:49;;;;;;;14.75;8.38;;;;;;;9.69;70.22;101765.06;5010026;28;20064;-63
2022/04/20 01:42:14;;;;;;;13.80;8.07;;;;;;;9.73;70.02;101756.22;5008764;28;20057;-63
2022/04/20 01:44:40;;;;;;;12.23;8.43;;;;;;;9.65;70.03;101758.94;5009867;28;20030;-64
2022/04/20 01:47:05;;;;;;;12.63;8.15;;;;;;;9.60;70.30;101768.66;5008861;28;20030;-65
2022/04/20 01:49:31;;;;;;;11.75;8.18;;;;;;;9.70;69.87;101757.09;5008942;28;20029;-64
2022/04/20 01:51:59;;;;;;;13.88;8.27;;;;;;;9.65;70.25;101769.47;5007589;28;20172;-67
2022/04/20 01:54:24;;;;;;;14.57;8.20;;;;;;;9.71;69.74;101774.66;5008231;28;20025;-63
2022/04/20 01:56:51;;;;;;;10.50;7.32;;;;;;;9.73;69.64;101767.59;5008853;28;20568;-64
2022/04/20 01:59:17;;;;;;;12.65;7.15;;;;;;;9.75;69.57;101766.72;5009775;28;20109;-64
2022/04/20 02:04:26;;;;;;;11.25;6.75;;;;;;;9.61;69.70;101771.28;5006854;28;20081;-63
2022/04/20 02:06:51;;;;;;;13.10;8.15;;;;;;;9.46;69.94;101769.72;5008162;28;20480;-64
2022/04/20 02:09:16;;;;;;;14.57;7.32;;;;;;;9.51;70.04;101768.81;5009646;28;20479;-64
2022/04/20 02:11:42;;;;;;;12.55;8.35;;;;;;;9.43;70.18;101763.66;5008079;28;20472;-63
2022/04/20 02:14:07;;;;;;;15.00;7.38;;;;;;;9.43;70.00;101761.03;5007563;28;20026;-63
2022/04/20 02:16:32;;;;;;;12.70;7.53;;;;;;;9.41;70.31;101762.81;5008192;28;20368;-63
2022/04/20 02:18:58;;;;;;;11.55;8.13;;;;;;;9.35;70.16;101761.13;5008334;28;20030;-64
2022/04/20 02:21:23;;;;;;;11.68;7.00;;;;;;;9.27;70.17;101763.00;5007362;28;20040;-64
2022/04/20 02:23:48;;;;;;;13.05;7.85;;;;;;;9.22;70.11;101760.44;5008851;28;20058;-65
2022/04/20 02:26:14;;;;;;;12.75;7.43;;;;;;;9.27;69.92;101761.22;5008277;28;20358;-63
2022/04/20 02:28:39;;;;;;;14.40;7.13;;;;;;;9.19;70.49;101757.84;5007025;28;20798;-62
2022/04/20 02:31:04;;;;;;;12.48;7.43;;;;;;;9.15;70.58;101754.38;5008454;28;21001;-63
2022/04/20 02:33:30;;;;;;;12.63;7.22;;;;;;;9.18;70.44;101758.75;5004112;28;20440;-64
2022/04/20 02:35:57;;;;;;;13.95;7.20;;;;;;;9.11;70.50;101752.69;5006226;28;20121;-64
2022/04/20 02:38:22;;;;;;;13.07;7.13;;;;;;;9.13;70.30;101753.56;5005956;28;20046;-64
2022/04/20 02:40:49;;;;;;;13.65;7.68;;;;;;;9.00;70.70;101752.81;5008055;28;20076;-65
2022/04/20 02:43:15;;;;;;;11.20;8.07;;;;;;;8.95;70.56;101752.03;5005825;28;20044;-65
2022/04/20 02:45:40;;;;;;;14.38;7.88;;;;;;;9.00;70.18;101749.34;5006939;28;20034;-62
2022/04/20 02:48:06;;;;;;;15.05;8.18;;;;;;;8.97;70.39;101750.22;5005513;28;20083;-64
2022/04/20 02:50:31;;;;;;;12.57;8.73;;;;;;;9.06;70.10;101744.84;5007386;28;20025;-63
2022/04/20 02:52:58;;;;;;;15.82;8.35;;;;;;;9.04;69.90;101751.91;5007358;28;20077;-64
2022/04/20 02:55:23;;;;;;;12.68;7.65;;;;;;;9.05;69.83;101753.63;5007816;28;20472;-63
2022/04/20 02:57:49;;;;;;;11.85;8.02;;;;;;;8.95;70.24;101752.91;5006476;28;20032;-63
2022/04/20 03:00:15;;;;;;;11.07;7.20;;;;;;;9.07;69.63;101762.41;5008014;28;20414;-64
2022/04/20 03:02:40;;;;;;;12.80;7.68;;;;;;;9.05;69.38;101764.16;5006058;28;20772;-63
2022/04/20 03:05:06;;;;;;;13.70;6.85;;;;;;;9.02;69.37;101766.81;5007597;28;20022;-65
2022/04/20 03:07:31;;;;;;;10.80;7.53;;;;;;;8.94;69.62;101766.06;5006934;28;20034;-63
2022/04/20 03:09:57;;;;;;;10.55;6.13;;;;;;;8.91;69.74;101771.34;5007023;28;20494;-64
2022/04/20 03:12:22;;;;;;;10.48;6.47;;;;;;;8.98;69.65;101773.00;5007094;28;20030;-63
2022/04/20 03:14:48;;;;;;;9.77;7.03;;;;;;;8.95;69.44;101773.03;5008611;28;20392;-63
2022/04/20 03:17:13;;;;;;;11.90;7.47;;;;;;;8.96;69.28;101774.78;5007148;28;20030;-63
2022/04/20 03:19:38;;;;;;;12.57;6.97;;;;;;;8.92;69.28;101773.09;5007488;28;20025;-63
2022/04/20 03:22:04;;;;;;;11.55;7.20;;;;;;;8.70;70.06;101774.19;5005139;28;20038;-64
2022/04/20 03:24:29;;;;;;;13.27;7.13;;;;;;;8.71;69.87;101775.94;5006736;28;20022;-64
2022/04/20 03:26:54;;;;;;;10.05;7.30;;;;;;;8.79;69.69;101772.38;5006618;28;20148;-65
2022/04/20 03:29:20;;;;;;;12.00;7.35;;;;;;;8.69;69.71;101771.56;5007788;28;20030;-64
2022/04/20 03:31:46;;;;;;;9.75;7.10;;;;;;;8.56;69.94;101774.34;5008030;28;20026;-65
2022/04/20 03:34:12;;;;;;;10.50;7.00;;;;;;;8.62;69.55;101780.41;5006113;28;20053;-64
2022/04/20 03:36:37;;;;;;;12.25;6.90;;;;;;;8.59;69.75;101778.69;5005750;28;20021;-64
2022/04/20 03:39:03;;;;;;;9.00;6.45;;;;;;;8.56;69.63;101779.59;5007190;28;20026;-64
2022/04/20 03:41:28;;;;;;;11.98;7.13;;;;;;;8.53;69.23;101779.59;5007363;28;20056;-64
2022/04/20 03:43:53;;;;;;;10.00;6.60;;;;;;;8.51;69.41;101780.47;5005533;28;20534;-63
2022/04/20 03:46:19;;;;;;;9.48;6.30;;;;;;;8.32;69.42;101778.06;5007296;28;20095;-63
2022/04/20 03:48:45;;;;;;;9.93;6.55;;;;;;;8.33;69.30;101780.66;5005737;28;20041;-64
2022/04/20 03:51:10;;;;;;;11.13;6.38;;;;;;;8.42;68.98;101779.69;5007690;28;20026;-64
2022/04/20 03:53:36;;;;;;;11.07;6.53;;;;;;;8.38;69.09;101777.13;5004771;28;20156;-65
2022/04/20 03:56:01;;;;;;;9.57;6.30;;;;;;;8.17;69.20;101785.19;5007408;28;20144;-64
2022/04/20 03:58:26;;;;;;;11.77;6.90;;;;;;;8.26;69.23;101784.25;5003425;28;20045;-64
2022/04/20 04:00:52;;;;;;;9.05;6.22;;;;;;;8.43;68.11;101788.47;5007805;28;20053;-63
2022/04/20 04:03:20;;;;;;;8.80;6.18;;;;;;;8.34;68.62;101787.66;5006602;28;20042;-66
2022/04/20 04:05:46;;;;;;;11.30;6.47;;;;;;;8.45;68.19;101790.19;5007645;28;20408;-64
2022/04/20 04:08:11;;;;;;;12.75;6.45;;;;;;;8.32;68.52;101799.94;5007288;28;20034;-64
2022/04/20 04:10:36;;;;;;;8.85;5.78;;;;;;;8.37;68.38;101791.16;5007031;28;20042;-65
2022/04/20 04:13:02;;;;;;;11.25;6.28;;;;;;;8.37;68.39;101784.13;5005766;28;20045;-64
2022/04/20 04:15:28;;;;;;;9.32;6.22;;;;;;;8.21;68.73;101792.16;5007064;28;20034;-62
2022/04/20 04:17:58;;;;;;;10.57;5.97;;;;;;;8.22;68.34;101791.25;5007534;28;20125;-64
2022/04/20 04:20:26;;;;;;;10.02;6.28;;;;;;;8.14;68.57;101794.84;5006782;28;20030;-62
2022/04/20 04:22:51;;;;;;;8.95;5.38;;;;;;;8.17;68.63;101797.44;5006337;28;20105;-62
2022/04/20 04:25:16;;;;;;;12.95;6.20;;;;;;;8.03;68.71;101790.53;5007811;28;20133;-64
2022/04/20 04:27:42;;;;;;;11.45;6.60;;;;;;;8.03;68.68;101793.16;5005537;28;20030;-65
2022/04/20 04:30:08;;;;;;;12.43;6.05;;;;;;;8.05;68.57;101796.66;5006259;28;20046;-63
2022/04/20 04:32:33;;;;;;;8.80;5.47;;;;;;;8.13;68.01;101791.31;5005821;28;20037;-63
2022/04/20 04:34:59;;;;;;;12.23;5.88;;;;;;;8.06;68.66;101793.16;5006337;28;20037;-63
2022/04/20 04:37:25;;;;;;;10.73;6.07;;;;;;;8.11;68.36;101795.75;5005476;28;20385;-64
2022/04/20 04:39:50;;;;;;;9.00;5.28;;;;;;;8.09;68.30;101802.75;5007477;28;20049;-63
2022/04/20 04:42:15;;;;;;;8.00;5.45;;;;;;;8.01;68.60;101804.56;5005037;28;20044;-64
2022/04/20 04:44:41;;;;;;;9.32;5.80;;;;;;;8.04;68.34;101807.19;5005336;28;20503;-65
2022/04/20 04:49:50;;;;;;;9.52;5.65;;;;;;;8.01;68.37;101812.44;5005531;28;20056;-63
2022/04/20 04:52:16;;;;;;;9.45;5.18;;;;;;;8.00;68.37;101814.19;5006775;28;20034;-63
2022/04/20 04:54:42;;;;;;;7.25;5.38;;;;;;;7.98;68.33;101815.97;5004925;28;20408;-64
2022/04/20 04:57:08;;;;;;;7.78;4.95;;;;;;;8.02;68.05;101812.44;5004931;28;20080;-64
2022/04/20 04:59:35;;;;;;;8.48;5.50;;;;;;;7.99;68.34;101817.69;5008691;28;20030;-64
2022/04/20 05:02:01;;;;;;;9.35;5.60;;;;;;;8.00;68.08;101824.69;5008335;28;20034;-64
2022/04/20 05:04:26;;;;;;;10.27;5.75;;;;;;;7.96;67.91;101815.97;5007738;28;20511;-64
2022/04/20 05:06:51;;;;;;;9.20;5.55;;;;;;;8.05;68.13;101817.66;5007977;28;20446;-64
2022/04/20 05:09:17;;;;;;;11.40;5.50;;;;;;;8.13;67.49;101824.59;5008655;28;20472;-65
2022/04/20 05:11:42;;;;;;;9.80;5.45;;;;;;;8.03;67.91;101827.28;5009039;28;20076;-66
2022/04/20 05:14:08;;;;;;;5.82;4.90;;;;;;;8.21;67.16;101823.66;5008700;28;20109;-64
2022/04/20 05:16:33;;;;;;;9.88;5.18;;;;;;;8.13;67.39;101840.34;5009765;28;20136;-66
2022/04/20 05:18:59;;;;;;;8.88;5.82;;;;;;;8.11;67.69;101836.84;5008799;28;20535;-65
2022/04/20 05:21:24;;;;;;;8.15;4.82;;;;;;;8.19;67.03;101835.06;5009786;28;20021;-64
2022/04/20 05:23:49;;;;;;;8.07;5.13;;;;;;;8.18;67.39;101835.94;5008673;28;20034;-65
2022/04/20 05:26:15;;;;;;;8.88;5.30;;;;;;;8.16;67.56;101835.09;5009945;28;20353;-63
2022/04/20 05:28:40;;;;;;;6.90;5.65;;;;;;;8.05;67.51;101837.78;5008557;28;20357;-64
2022/04/20 05:31:05;;;;;;;12.48;5.28;;;;;;;8.17;67.45;101834.19;5009898;28;20037;-57
2022/04/20 05:33:31;;;;;;;9.13;5.30;;;;;;;8.07;67.44;101831.63;4998816;28;20464;-55
2022/04/20 05:35:56;;;;;;;6.60;5.05;;;;;;;8.26;67.21;101836.75;4997878;28;20033;-62
2022/04/20 05:43:49;;;;;;;13.02;6.18;;;;;;;8.42;66.86;101836.59;4989444;28;20038;-61
2022/04/20 05:46:16;;;;;;;9.20;5.30;;;;;;;8.54;66.72;101839.16;5021174;28;20034;-59
2022/04/20 05:48:41;;;;;;;7.55;4.85;;;;;;;8.61;66.44;101839.13;5007539;28;20789;-61
2022/04/20 05:51:07;;;;;;;8.18;4.63;;;;;;;8.78;66.03;101841.56;5008890;28;20026;-59
2022/04/20 05:53:33;;;;;;;8.63;5.40;;;;;;;8.72;66.46;101840.75;4998901;28;20085;-61
2022/04/20 05:55:58;;;;;;;10.38;5.60;;;;;;;8.63;66.10;101846.09;4988322;28;20033;-60
2022/04/20 05:58:24;;;;;;;10.18;5.40;;;;;;;8.72;65.93;101847.75;4988628;28;20036;-63
2022/04/20 06:00:49;;;;;;;12.27;5.45;;;;;;;8.85;65.38;101846.75;4999067;28;20116;-60
2022/04/20 06:03:14;;;;;;;11.55;5.47;;;;;;;8.94;65.89;101852.81;5008497;28;20077;-62
2022/04/20 06:05:41;;;;;;;10.57;5.13;;;;;;;8.93;65.39;101856.28;5006289;28;20034;-61
2022/04/20 06:08:07;;;;;;;10.32;4.85;;;;;;;8.88;65.37;101855.50;5007880;28;20050;-61
2022/04/20 06:10:33;;;;;;;8.98;5.22;;;;;;;9.01;65.15;101846.59;5007943;28;20481;-61
2022/04/20 06:12:59;;;;;;;8.80;5.20;;;;;;;9.00;64.96;101842.19;5007887;28;20036;-61
2022/04/20 06:15:24;;;;;;;7.35;5.63;;;;;;;9.16;64.42;101844.66;5008310;28;20022;-60
2022/04/20 06:17:49;;;;;;;7.38;4.72;;;;;;;9.30;63.95;101847.13;5007180;28;20026;-60
2022/04/20 06:20:15;;;;;;;6.80;4.60;;;;;;;9.32;64.04;101856.75;5006650;28;20116;-60
2022/04/20 06:22:40;;;;;;;8.63;4.63;;;;;;;9.34;63.63;101857.56;5007730;28;20045;-61
2022/04/20 06:25:06;;;;;;;9.75;5.03;;;;;;;9.46;63.73;101853.06;5006178;28;20034;-60
2022/04/20 06:27:31;;;;;;;10.05;5.22;;;;;;;9.64;63.08;101859.84;5007437;28;20130;-62
2022/04/20 06:29:57;;;;;;;8.93;4.53;;;;;;;9.81;62.84;101851.72;4996278;28;20488;-62
2022/04/20 06:32:24;;;;;;;6.78;4.65;;;;;;;9.93;62.54;101848.03;4993846;28;20088;-60
2022/04/20 06:34:50;;;;;;;6.88;5.07;;;;;;;9.99;63.03;101847.94;5006465;28;20029;-61
2022/04/20 06:37:17;;;;;;;6.95;4.80;;;;;;;9.99;62.61;101850.56;5007584;28;20440;-61
2022/04/20 06:39:43;;;;;;;5.72;4.45;;;;;;;10.28;62.10;101843.09;5004526;28;20037;-60
2022/04/20 06:42:08;;;;;;;6.75;4.28;;;;;;;10.42;61.12;101844.63;4978599;28;20128;-61
2022/04/20 06:44:33;;;;;;;9.70;4.65;;;;;;;10.38;60.67;101850.88;4984820;28;20468;-61
2022/04/20 06:46:59;;;;;;;9.25;4.57;;;;;;;10.63;59.83;101850.47;4985734;28;20052;-60
2022/04/20 06:49:24;;;;;;;9.18;4.03;;;;;;;10.79;59.15;101857.19;4984084;28;20669;-62
2022/04/20 07:00:02;;;;;;;5.63;3.53;;;;;;;11.31;57.37;101862.34;4985961;28;20061;-62
2022/04/20 07:02:27;;;;;;;6.32;4.18;;;;;;;11.23;56.86;101861.66;4985923;28;20447;-62
2022/04/20 07:04:53;;;;;;;5.88;4.20;;;;;;;11.43;55.74;101857.69;4985671;28;20121;-63
2022/04/20 07:07:18;;;;;;;9.95;4.00;;;;;;;11.41;55.29;101862.16;4987407;28;20480;-61
2022/04/20 07:09:43;;;;;;;3.80;3.40;;;;;;;11.56;55.39;101859.19;4983939;28;20045;-58
2022/04/20 07:12:09;;;;;;;8.93;4.20;;;;;;;11.65;55.45;101866.03;4984958;28;20476;-61
2022/04/20 07:14:34;;;;;;;6.28;3.85;;;;;;;11.63;55.43;101866.06;4985154;28;20061;-62
2022/04/20 07:17:02;;;;;;;13.95;4.40;;;;;;;11.67;55.71;101860.72;4986027;28;20022;-62
2022/04/20 07:19:27;;;;;;;18.00;3.88;;;;;;;11.86;54.84;101864.69;4983894;28;20559;-60
2022/04/20 07:21:53;;;;;;;7.97;3.72;;;;;;;11.88;54.36;101869.94;4984250;28;20625;-60
2022/04/20 07:24:18;;;;;;;10.32;4.18;;;;;;;12.05;54.11;101866.03;4986122;28;20113;-61
2022/04/20 07:26:43;;;;;;;4.25;3.45;;;;;;;12.16;54.26;101868.47;4984813;28;20033;-62
2022/04/20 07:29:09;;;;;;;6.30;3.53;;;;;;;12.30;53.40;101873.38;4986091;28;20037;-61
2022/04/20 07:31:34;;;;;;;6.65;3.17;;;;;;;12.37;52.68;101864.41;4984975;28;20575;-62
2022/04/20 07:33:59;;;;;;;5.63;3.33;;;;;;;12.38;52.25;101866.16;4985403;28;20116;-61
2022/04/20 07:36:25;;;;;;;3.45;3.15;;;;;;;12.38;52.66;101864.34;4985300;28;20256;-63
2022/04/20 07:38:50;;;;;;;7.55;3.35;;;;;;;12.29;52.41;101877.81;4986631;28;20958;-60
2022/04/20 07:41:16;;;;;;;3.90;3.10;;;;;;;12.57;52.38;101871.84;4984238;28;20280;-61
2022/04/20 07:43:41;;;;;;;7.60;3.65;;;;;;;12.63;52.12;101866.41;4983925;28;20056;-62
2022/04/20 07:46:06;;;;;;;5.45;3.15;;;;;;;12.83;51.60;101867.66;4984842;28;20109;-62
2022/04/20 07:48:32;;;;;;;5.18;3.45;;;;;;;12.84;51.60;101871.13;4985529;28;20022;-61
2022/04/20 07:50:57;;;;;;;5.68;3.38;;;;;;;13.06;50.89;101866.13;4985246;28;20065;-66
2022/04/20 07:53:22;;;;;;;4.70;3.33;;;;;;;13.01;50.83;101866.25;4984988;28;20104;-63
2022/04/20 07:55:48;;;;;;;4.53;3.53;;;;;;;12.95;50.13;101866.44;4985014;28;20076;-63
2022/04/20 07:58:14;;;;;;;8.50;3.78;;;;;;;13.01;50.02;101866.25;4985057;28;20377;-64
2022/04/20 08:00:39;;;;;;;5.85;3.25;;;;;;;13.04;50.21;101862.69;4983447;28;20022;-62
2022/04/20 08:03:17;;;;;;;9.60;3.75;;;;;;;13.23;51.42;101870.06;4983643;28;20630;-63
2022/04/20 08:05:47;;;;;;;5.10;4.00;;;;;;;13.44;51.53;101873.00;4984246;28;20113;-61
2022/04/20 08:08:13;;;;;;;8.23;3.70;;;;;;;13.22;53.19;101873.66;4986151;28;20046;-64
2022/04/20 08:10:38;;;;;;;4.97;3.88;;;;;;;13.27;53.21;101871.72;4984124;28;20424;-63
2022/04/20 08:14:09;;;;;;;9.48;4.00;;;;;;;13.29;53.55;101876.97;4986069;28;20527;-61
2022/04/20 08:15:50;;;;;;;4.47;3.42;;;;;;;13.54;53.26;101879.78;4985522;28;20034;-61
2022/04/20 08:18:15;;;;;;;8.50;4.25;;;;;;;13.69;53.40;101883.78;4986020;28;20068;-61
2022/04/20 08:20:41;;;;;;;6.50;4.03;;;;;;;13.71;52.93;101881.06;4985082;28;20734;-62
2022/04/20 08:23:06;;;;;;;10.02;4.30;;;;;;;13.46;52.77;101882.63;4985706;28;20108;-59
2022/04/20 08:25:31;;;;;;;7.47;4.20;;;;;;;13.48;52.71;101877.28;4985907;28;20026;-59
2022/04/20 08:27:57;;;;;;;9.55;3.63;;;;;;;13.48;52.51;101886.13;4984245;28;20038;-57
2022/04/20 08:30:22;;;;;;;4.78;3.58;;;;;;;13.70;51.69;101885.50;4984847;28;20527;-59
2022/04/20 08:32:47;;;;;;;5.35;3.60;;;;;;;14.08;50.95;101885.22;4985822;28;20345;-57
2022/04/20 08:35:13;;;;;;;6.60;3.53;;;;;;;14.11;51.05;101885.13;4989650;28;20030;-60
2022/04/20 08:37:38;;;;;;;7.55;3.53;;;;;;;14.13;50.70;101883.31;4986898;28;20018;-60
2022/04/20 08:40:04;;;;;;;7.53;3.55;;;;;;;14.04;50.62;101888.91;4989558;28;20262;-60
2022/04/20 08:42:32;;;;;;;8.52;3.67;;;;;;;14.30;50.28;101879.22;4986769;28;20033;-60
2022/04/20 08:45:02;;;;;;;7.68;4.10;;;;;;;14.31;49.70;101894.22;4970350;28;20140;-60
2022/04/20 08:47:34;;;;;;;6.78;3.58;;;;;;;14.25;50.52;101890.00;4987171;28;20117;-62
2022/04/20 08:50:01;;;;;;;5.47;3.38;;;;;;;14.42;50.86;101890.34;4989492;28;20038;-59
2022/04/20 08:52:39;;;;;;;3.85;3.08;;;;;;;14.60;49.28;101881.75;4985891;28;20022;-61
2022/04/20 08:55:07;;;;;;;7.40;3.33;;;;;;;14.62;50.14;101882.56;4988041;28;20014;-61
2022/04/20 08:57:34;;;;;;;4.85;3.45;;;;;;;14.37;48.66;101880.78;4987461;28;20484;-59
2022/04/20 09:00:00;;;;;;;3.88;3.08;;;;;;;14.38;48.94;101879.84;4990144;28;20465;-62
2022/04/20 09:02:28;;;;;;;4.35;2.80;;;;;;;14.70;47.92;101887.63;4984648;28;20100;-59
2022/04/20 09:04:54;;;;;;;6.50;2.78;;;;;;;14.88;47.96;101875.53;4988809;28;20238;-60
2022/04/20 09:07:19;;;;;;;8.30;3.17;;;;;;;14.46;47.06;101868.97;4984846;28;20036;-59
2022/04/20 09:09:44;;;;;;;4.38;3.08;;;;;;;14.64;47.49;101872.78;4981137;28;20117;-57
2022/04/20 09:12:18;;;;;;;5.05;3.00;;;;;;;14.77;46.66;101869.69;4980050;28;20022;-58
2022/04/20 09:14:48;;;;;;;3.38;2.67;;;;;;;14.72;46.13;101866.34;4986426;28;20018;-57
2022/04/20 09:17:16;;;;;;;6.40;2.92;;;;;;;14.95;45.84;101865.56;4981080;28;20121;-55
2022/04/20 09:19:41;;;;;;;7.38;2.50;;;;;;;15.08;46.07;101859.81;4988935;28;20831;-56
2022/04/20 09:22:19;;;;;;;6.25;3.13;;;;;;;15.10;46.58;101874.75;4985240;28;20136;-56
2022/04/20 09:25:10;;;;;;;3.08;2.42;;;;;;;15.24;46.73;101876.91;4986580;28;20389;-55
2022/04/20 09:27:40;;;;;;;4.78;2.67;;;;;;;15.33;46.32;101870.38;4986460;28;20068;-59
2022/04/20 09:30:16;;;;;;;4.28;2.63;;;;;;;15.49;45.40;101868.00;4999217;28;20025;-55
2022/04/20 09:32:42;;;;;;;6.15;2.72;;;;;;;15.31;44.44;101871.34;5003590;28;20602;-56
2022/04/20 09:35:15;;;;;;;5.00;2.72;;;;;;;15.57;44.49;101870.38;5007044;28;20535;-58
2022/04/20 09:37:43;;;;;;;2.55;2.28;;;;;;;15.47;44.80;101863.69;5006592;28;20041;-60
2022/04/20 09:40:13;;;;;;;2.90;2.17;;;;;;;15.16;44.52;101866.56;5008579;28;20022;-58
2022/04/20 09:42:59;;;;;;;3.55;2.72;;;;;;;14.89;45.52;101863.13;5006414;28;20033;-61
2022/04/20 09:45:25;;;;;;;4.22;2.75;;;;;;;15.15;44.77;101858.66;5004834;28;20046;-61
2022/04/20 09:50:34;;;;;;;3.55;2.67;;;;;;;15.33;44.50;101859.75;5006331;28;20080;-62
2022/04/20 09:53:05;;;;;;;5.15;2.85;;;;;;;15.34;45.46;101850.88;5005825;28;20018;-64
2022/04/20 09:55:36;;;;;;;4.18;2.40;;;;;;;15.41;42.93;101847.03;5005537;28;20265;-61
2022/04/20 09:58:18;;;;;;;4.63;2.60;;;;;;;15.70;42.96;101845.97;5006476;28;20034;-61
2022/04/20 10:00:48;;;;;;;3.72;2.50;;;;;;;15.62;43.71;101854.25;5007485;28;20349;-62
2022/04/20 10:03:27;;;;;;;8.40;2.67;;;;;;;15.27;42.89;101854.69;5006824;28;20060;-60
2022/04/20 10:05:53;;;;;;;5.50;2.63;;;;;;;15.65;42.21;101852.34;5005898;28;20029;-58
2022/04/20 10:08:19;;;;;;;4.20;2.40;;;;;;;15.89;41.43;101856.72;5007078;28;20377;-59
2022/04/20 10:10:47;;;;;;;6.10;2.53;;;;;;;15.86;41.64;101851.56;5007390;28;20055;-61
2022/04/20 10:13:13;;;;;;;2.67;2.25;;;;;;;16.17;41.26;101853.84;5006590;28;20021;-58
2022/04/20 10:18:25;;;;;;;3.50;2.03;;;;;;;16.34;40.26;101838.97;5005010;28;20088;-60
2022/04/20 10:20:56;;;;;;;4.20;2.25;;;;;;;16.49;40.39;101839.22;5005997;28;20460;-57
2022/04/20 10:23:22;;;;;;;10.65;2.28;;;;;;;16.11;39.48;101848.78;5006775;28;20026;-60
2022/04/20 10:25:50;;;;;;;4.75;2.70;;;;;;;16.34;39.96;101836.31;5004219;28;20041;-60
2022/04/20 10:28:33;;;;;;;2.83;2.08;;;;;;;15.77;40.03;101842.13;5007736;28;20037;-59
2022/04/20 10:31:28;;;;;;;5.15;2.58;;;;;;;16.36;39.91;101837.13;5005308;28;20030;-60
2022/04/20 10:33:54;;;;;;;3.90;2.60;;;;;;;16.23;39.72;101835.91;5005443;28;20034;-62
2022/04/20 10:36:30;;;;;;;4.68;2.40;;;;;;;16.66;40.89;101834.06;5004174;28;20353;-61
2022/04/20 10:39:33;;;;;;;2.70;2.50;;;;;;;16.80;38.60;101829.94;5005608;28;20358;-60
2022/04/20 10:42:19;;;;;;;3.55;2.53;;;;;;;16.74;39.54;101827.53;4964202;28;20192;-58
2022/04/20 10:45:01;;;;;;;4.65;2.53;;;;;;;16.68;38.87;101824.19;4986850;28;20030;-59
2022/04/20 10:47:36;;;;;;;4.30;2.30;;;;;;;17.05;38.35;101820.81;4996881;28;20488;-60
2022/04/20 10:50:25;;;;;;;3.03;2.47;;;;;;;17.18;40.24;101821.16;5006124;28;20034;-59
2022/04/20 10:52:52;;;;;;;5.75;2.63;;;;;;;17.17;38.16;101812.31;5004517;28;20071;-59
2022/04/20 10:55:24;;;;;;;4.05;2.70;;;;;;;17.23;39.47;101802.28;5006671;28;20022;-60
2022/04/20 10:57:54;;;;;;;2.67;2.47;;;;;;;17.17;37.85;101808.78;5005227;28;20393;-61
2022/04/20 11:00:19;;;;;;;4.22;2.70;;;;;;;17.37;37.54;101805.16;5006613;28;20515;-60
2022/04/20 11:02:55;;;;;;;3.80;2.70;;;;;;;17.67;38.75;101799.31;5004938;28;20058;-61
2022/04/20 11:05:22;;;;;;;3.92;2.63;;;;;;;17.75;39.54;101800.72;5005923;28;20041;-58
2022/04/20 11:07:59;;;;;;;3.03;2.72;;;;;;;17.82;38.96;101802.16;5006168;28;20124;-60
2022/04/20 11:10:24;;;;;;;5.10;3.30;;;;;;;17.70;39.18;101790.28;5006678;28;20025;-60
2022/04/20 11:18:39;;;;;;;4.53;2.38;;;;;;;17.96;38.90;101784.59;5005578;28;20056;-61
2022/04/20 11:21:05;;;;;;;3.42;2.45;;;;;;;17.86;38.33;101779.75;5006944;28;20326;-60
2022/04/20 11:23:50;;;;;;;5.30;3.03;;;;;;;17.37;39.77;101775.88;5005193;28;20056;-60
2022/04/20 11:26:28;;;;;;;5.28;2.80;;;;;;;17.61;38.56;101778.28;5006699;28;20036;-61
2022/04/20 11:28:55;;;;;;;7.43;2.85;;;;;;;17.90;39.42;101781.31;5003534;28;20030;-61
2022/04/20 11:31:20;;;;;;;2.90;2.30;;;;;;;17.68;37.67;101771.72;5006512;28;20029;-59
2022/04/20 11:33:46;;;;;;;8.88;2.50;;;;;;;17.66;38.40;101768.28;5004627;28;20037;-61
2022/04/20 11:36:15;;;;;;;3.00;2.17;;;;;;;18.07;36.96;101760.94;5006570;28;20334;-60
2022/04/20 11:38:42;;;;;;;5.80;2.58;;;;;;;17.94;38.68;101764.22;5004582;28;20033;-61
2022/04/20 11:41:12;;;;;;;4.25;2.40;;;;;;;18.09;38.46;101758.19;5006514;28;20022;-59
2022/04/20 11:43:41;;;;;;;2.45;2.20;;;;;;;18.11;39.21;101759.00;5004147;28;20026;-59
2022/04/20 11:46:07;;;;;;;6.28;2.50;;;;;;;18.30;38.73;101758.91;5005295;28;20021;-60
2022/04/20 11:48:35;;;;;;;4.30;2.35;;;;;;;18.45;37.31;101751.91;5004282;28;20136;-57
2022/04/20 11:51:01;;;;;;;3.55;2.38;;;;;;;18.40;36.27;101756.63;5006410;28;20014;-61
2022/04/20 11:53:42;;;;;;;2.45;2.10;;;;;;;18.51;36.69;101764.06;4987484;28;20065;-53